メインページ
METAR-TAF:

METAR-TAF

空港 :

ハリファックス・ロバート・L・スタンフィールド国際空港

ハリファックス, ノバスコシア州, カナダ

緯度: 44-53N, 経度: 063-30W, 海抜: 145m

現時点の気象観測

当レポートは23分前の03:00(UTC)に作成
東/北東の風 3kt
気温 -6°C
湿度 68%
気圧 1029 hPa
視程: 24.1km
高度23000ftの曇り

METAR: CYHZ 160300Z 07003KT 15SM OVC230 M06/M11 A3039 RMK CS8 SLP301

時間: 23:23 (03:23 UTC)

予報

当レポートは45分前の02:38(UTC)に作成
予報は16日の 03時(UTC)から 16日の 24時(UTC)まで有効
変向風 3kt
視程: 10km
高度24000ftの千切れ雲あり
16日の 0600時(UTC)から
変向風 3kt
視程: 10km
高度17000ftの千切れ雲あり
16日の 0900時(UTC)から
変向風 3kt
視程: 10km
高度1500ftの雲は散在している
高度8000ftの千切れ雲あり
小雪
16日の 1100時(UTC)から
の風 10kt、最大20ktの突風を伴う
視程: 1.6km
高度1500ftの千切れ雲あり
高度8000ftの曇り
小雪
16日の 1400時(UTC)から
の風 20kt、最大30ktの突風を伴う
視程: 3.2km
高度800ftの千切れ雲あり
高度1500ftの曇り
小雪, 凍雨
16日の 1600時(UTC)から
の風 20kt、最大30ktの突風を伴う
視程: 4.8km
高度800ftの曇り
小雨, 雪
16日の 1800時(UTC)から
の風 25kt、最大35ktの突風を伴う
視程: 6.4km
高度800ftの曇り
小雨, 靄
16日の 2200時(UTC)から
南西の風 15kt、最大25ktの突風を伴う
視程: 9.7km
高度800ftの千切れ雲あり
高度2000ftの曇り
小雨, 靄

TAF: CYHZ 160238Z 1603/1624 VRB03KT P6SM BKN240 FM160600 VRB03KT P6SM BKN170 FM160900 VRB03KT P6SM -SN SCT015 BKN080 FM161100 09010G20KT 1SM -SN BKN015 OVC080 FM161400 10020G30KT 2SM -SNPL BKN008 OVC015 FM161600 10020G30KT 3SM -RASN OVC008 FM161800 10025G35KT 4SM -RA BR OVC008 FM162200 23015G25KT 6SM -RA BR BKN008 OVC020 RMK NXT FCST BY 160600Z

4,000以上の空港の気象観測と天気予報(METAR報とTAF報)

利用可能な観測所は地図上に黄色い丸と赤い丸で示す。

丸の上にカーソルを重ねると観測所名を参照できる。

次にクリックすると気象観測と天気予報を参照できる。

マップの切り替え:黒色「×」印の緑ボタンをクリックして拡大、「-」印の緑ボタンをクリックして縮小、緑色の三角印をクリックして隣りの地図に切り替え


METAR-TAF: